sensor_id;sensor_type;location;lat;lon;timestamp;P1;durP1;ratioP1;P2;durP2;ratioP2
6356;SDS011;3211;53.452;-2.264;2022-08-21T00:00:03;11.73;;;3.23;;
6356;SDS011;3211;53.452;-2.264;2022-08-21T00:02:48;8.80;;;3.27;;
6356;SDS011;3211;53.452;-2.264;2022-08-21T00:05:34;8.17;;;3.00;;
6356;SDS011;3211;53.452;-2.264;2022-08-21T00:08:20;6.33;;;3.00;;
6356;SDS011;3211;53.452;-2.264;2022-08-21T00:11:04;13.10;;;3.40;;
6356;SDS011;3211;53.452;-2.264;2022-08-21T00:13:47;5.73;;;2.47;;
6356;SDS011;3211;53.452;-2.264;2022-08-21T00:16:29;5.40;;;3.00;;
6356;SDS011;3211;53.452;-2.264;2022-08-21T00:19:11;5.97;;;2.50;;
6356;SDS011;3211;53.452;-2.264;2022-08-21T00:21:54;7.73;;;2.30;;
6356;SDS011;3211;53.452;-2.264;2022-08-21T00:24:36;6.37;;;2.77;;
6356;SDS011;3211;53.452;-2.264;2022-08-21T00:27:19;6.87;;;2.10;;
6356;SDS011;3211;53.452;-2.264;2022-08-21T00:30:03;8.47;;;3.10;;
6356;SDS011;3211;53.452;-2.264;2022-08-21T00:32:46;6.80;;;2.27;;
6356;SDS011;3211;53.452;-2.264;2022-08-21T00:35:30;7.30;;;2.90;;
6356;SDS011;3211;53.452;-2.264;2022-08-21T00:38:14;5.50;;;2.53;;
6356;SDS011;3211;53.452;-2.264;2022-08-21T00:40:57;5.40;;;2.30;;
6356;SDS011;3211;53.452;-2.264;2022-08-21T00:43:42;3.50;;;2.13;;
6356;SDS011;3211;53.452;-2.264;2022-08-21T00:46:25;8.23;;;2.50;;
6356;SDS011;3211;53.452;-2.264;2022-08-21T00:49:07;8.67;;;2.50;;
6356;SDS011;3211;53.452;-2.264;2022-08-21T00:51:51;4.80;;;2.47;;
6356;SDS011;3211;53.452;-2.264;2022-08-21T00:54:39;6.07;;;2.70;;
6356;SDS011;3211;53.452;-2.264;2022-08-21T00:57:27;6.07;;;2.50;;
6356;SDS011;3211;53.452;-2.264;2022-08-21T01:00:15;8.97;;;2.67;;
6356;SDS011;3211;53.452;-2.264;2022-08-21T01:03:00;8.23;;;2.30;;
6356;SDS011;3211;53.452;-2.264;2022-08-21T01:05:46;7.60;;;3.30;;
6356;SDS011;3211;53.452;-2.264;2022-08-21T01:08:28;9.33;;;3.10;;
6356;SDS011;3211;53.452;-2.264;2022-08-21T01:11:11;11.20;;;2.90;;
6356;SDS011;3211;53.452;-2.264;2022-08-21T01:13:53;6.73;;;2.60;;
6356;SDS011;3211;53.452;-2.264;2022-08-21T01:16:37;6.33;;;3.43;;
6356;SDS011;3211;53.452;-2.264;2022-08-21T01:19:20;7.70;;;3.20;;
6356;SDS011;3211;53.452;-2.264;2022-08-21T01:22:04;7.63;;;3.00;;
6356;SDS011;3211;53.452;-2.264;2022-08-21T01:24:46;5.50;;;2.63;;
6356;SDS011;3211;53.452;-2.264;2022-08-21T01:27:28;6.43;;;2.93;;
6356;SDS011;3211;53.452;-2.264;2022-08-21T01:30:11;3.37;;;2.20;;
6356;SDS011;3211;53.452;-2.264;2022-08-21T01:32:55;7.30;;;2.70;;
6356;SDS011;3211;53.452;-2.264;2022-08-21T01:35:38;7.70;;;3.00;;
6356;SDS011;3211;53.452;-2.264;2022-08-21T01:38:22;6.20;;;2.97;;
6356;SDS011;3211;53.452;-2.264;2022-08-21T01:41:04;5.50;;;3.10;;
6356;SDS011;3211;53.452;-2.264;2022-08-21T01:43:46;9.93;;;3.10;;
6356;SDS011;3211;53.452;-2.264;2022-08-21T01:46:28;5.80;;;2.83;;
6356;SDS011;3211;53.452;-2.264;2022-08-21T01:49:11;6.90;;;3.30;;
6356;SDS011;3211;53.452;-2.264;2022-08-21T01:51:54;8.90;;;3.47;;
6356;SDS011;3211;53.452;-2.264;2022-08-21T01:54:37;5.60;;;2.40;;
6356;SDS011;3211;53.452;-2.264;2022-08-21T01:57:20;6.87;;;2.50;;
6356;SDS011;3211;53.452;-2.264;2022-08-21T02:00:03;7.73;;;2.70;;
6356;SDS011;3211;53.452;-2.264;2022-08-21T02:02:46;5.83;;;2.30;;
6356;SDS011;3211;53.452;-2.264;2022-08-21T02:05:28;4.87;;;3.10;;
6356;SDS011;3211;53.452;-2.264;2022-08-21T02:08:10;10.53;;;3.00;;
6356;SDS011;3211;53.452;-2.264;2022-08-21T02:10:55;6.17;;;2.63;;
6356;SDS011;3211;53.452;-2.264;2022-08-21T02:13:37;9.70;;;2.90;;
6356;SDS011;3211;53.452;-2.264;2022-08-21T02:16:19;9.30;;;2.80;;
6356;SDS011;3211;53.452;-2.264;2022-08-21T02:19:01;13.60;;;3.70;;
6356;SDS011;3211;53.452;-2.264;2022-08-21T02:21:44;6.80;;;2.70;;
6356;SDS011;3211;53.452;-2.264;2022-08-21T02:24:26;4.47;;;2.50;;
6356;SDS011;3211;53.452;-2.264;2022-08-21T02:27:09;6.77;;;3.23;;
6356;SDS011;3211;53.452;-2.264;2022-08-21T02:29:51;9.47;;;2.97;;
6356;SDS011;3211;53.452;-2.264;2022-08-21T02:32:33;4.70;;;2.90;;
6356;SDS011;3211;53.452;-2.264;2022-08-21T02:35:17;8.97;;;2.90;;
6356;SDS011;3211;53.452;-2.264;2022-08-21T02:38:00;8.60;;;3.50;;
6356;SDS011;3211;53.452;-2.264;2022-08-21T02:40:45;4.63;;;3.33;;
6356;SDS011;3211;53.452;-2.264;2022-08-21T02:43:30;9.67;;;2.70;;
6356;SDS011;3211;53.452;-2.264;2022-08-21T02:46:15;10.17;;;2.77;;
6356;SDS011;3211;53.452;-2.264;2022-08-21T02:48:58;7.53;;;2.70;;
6356;SDS011;3211;53.452;-2.264;2022-08-21T02:51:40;8.03;;;3.10;;
6356;SDS011;3211;53.452;-2.264;2022-08-21T02:54:23;14.30;;;3.00;;
6356;SDS011;3211;53.452;-2.264;2022-08-21T02:57:05;7.43;;;2.93;;
6356;SDS011;3211;53.452;-2.264;2022-08-21T02:59:49;6.33;;;2.63;;
6356;SDS011;3211;53.452;-2.264;2022-08-21T03:02:31;8.57;;;2.53;;
6356;SDS011;3211;53.452;-2.264;2022-08-21T03:05:15;5.80;;;3.03;;
6356;SDS011;3211;53.452;-2.264;2022-08-21T03:07:58;10.50;;;3.60;;
6356;SDS011;3211;53.452;-2.264;2022-08-21T03:10:41;5.67;;;2.60;;
6356;SDS011;3211;53.452;-2.264;2022-08-21T03:13:25;7.03;;;3.97;;
6356;SDS011;3211;53.452;-2.264;2022-08-21T03:16:09;8.30;;;2.77;;
6356;SDS011;3211;53.452;-2.264;2022-08-21T03:18:51;5.40;;;2.90;;
6356;SDS011;3211;53.452;-2.264;2022-08-21T03:21:33;7.43;;;3.13;;
6356;SDS011;3211;53.452;-2.264;2022-08-21T03:24:15;10.70;;;3.73;;
6356;SDS011;3211;53.452;-2.264;2022-08-21T03:26:57;11.50;;;4.20;;
6356;SDS011;3211;53.452;-2.264;2022-08-21T03:29:40;8.53;;;3.17;;
6356;SDS011;3211;53.452;-2.264;2022-08-21T03:32:23;9.40;;;3.00;;
6356;SDS011;3211;53.452;-2.264;2022-08-21T03:35:05;8.17;;;3.00;;
6356;SDS011;3211;53.452;-2.264;2022-08-21T03:37:48;12.20;;;3.17;;
6356;SDS011;3211;53.452;-2.264;2022-08-21T03:40:30;10.23;;;4.43;;
6356;SDS011;3211;53.452;-2.264;2022-08-21T03:43:12;8.37;;;3.10;;
6356;SDS011;3211;53.452;-2.264;2022-08-21T03:45:54;9.70;;;3.13;;
6356;SDS011;3211;53.452;-2.264;2022-08-21T03:48:37;11.03;;;4.47;;
6356;SDS011;3211;53.452;-2.264;2022-08-21T03:51:19;8.00;;;3.30;;
6356;SDS011;3211;53.452;-2.264;2022-08-21T03:54:02;14.10;;;3.03;;
6356;SDS011;3211;53.452;-2.264;2022-08-21T03:56:44;6.40;;;2.63;;
6356;SDS011;3211;53.452;-2.264;2022-08-21T03:59:26;8.23;;;3.40;;
6356;SDS011;3211;53.452;-2.264;2022-08-21T04:02:08;6.23;;;2.60;;
6356;SDS011;3211;53.452;-2.264;2022-08-21T04:04:52;10.30;;;3.50;;
6356;SDS011;3211;53.452;-2.264;2022-08-21T04:07:34;8.60;;;3.20;;
6356;SDS011;3211;53.452;-2.264;2022-08-21T04:10:17;7.83;;;3.10;;
6356;SDS011;3211;53.452;-2.264;2022-08-21T04:12:59;9.40;;;2.93;;
6356;SDS011;3211;53.452;-2.264;2022-08-21T04:15:41;8.93;;;3.50;;
6356;SDS011;3211;53.452;-2.264;2022-08-21T04:18:23;4.93;;;3.10;;
6356;SDS011;3211;53.452;-2.264;2022-08-21T04:21:07;11.80;;;3.20;;
6356;SDS011;3211;53.452;-2.264;2022-08-21T04:23:50;13.20;;;3.60;;
6356;SDS011;3211;53.452;-2.264;2022-08-21T04:26:35;9.43;;;2.80;;
6356;SDS011;3211;53.452;-2.264;2022-08-21T04:29:17;4.90;;;2.97;;
6356;SDS011;3211;53.452;-2.264;2022-08-21T04:31:59;7.30;;;3.27;;
6356;SDS011;3211;53.452;-2.264;2022-08-21T04:34:41;9.60;;;2.90;;
6356;SDS011;3211;53.452;-2.264;2022-08-21T04:37:25;12.13;;;3.13;;
6356;SDS011;3211;53.452;-2.264;2022-08-21T04:40:07;4.33;;;2.53;;
6356;SDS011;3211;53.452;-2.264;2022-08-21T04:42:51;5.23;;;2.50;;
6356;SDS011;3211;53.452;-2.264;2022-08-21T04:45:35;7.60;;;3.00;;
6356;SDS011;3211;53.452;-2.264;2022-08-21T04:48:19;7.13;;;2.70;;
6356;SDS011;3211;53.452;-2.264;2022-08-21T04:51:06;6.80;;;2.40;;
6356;SDS011;3211;53.452;-2.264;2022-08-21T04:53:56;7.87;;;2.43;;
6356;SDS011;3211;53.452;-2.264;2022-08-21T04:56:42;11.23;;;2.53;;
6356;SDS011;3211;53.452;-2.264;2022-08-21T04:59:33;7.37;;;2.40;;
6356;SDS011;3211;53.452;-2.264;2022-08-21T05:02:17;6.13;;;2.40;;
6356;SDS011;3211;53.452;-2.264;2022-08-21T05:05:03;8.03;;;2.50;;
6356;SDS011;3211;53.452;-2.264;2022-08-21T05:07:45;4.20;;;2.30;;
6356;SDS011;3211;53.452;-2.264;2022-08-21T05:10:29;5.70;;;2.30;;
6356;SDS011;3211;53.452;-2.264;2022-08-21T05:13:12;4.13;;;2.47;;
6356;SDS011;3211;53.452;-2.264;2022-08-21T05:15:55;7.87;;;2.27;;
6356;SDS011;3211;53.452;-2.264;2022-08-21T05:18:38;4.63;;;1.83;;
6356;SDS011;3211;53.452;-2.264;2022-08-21T05:21:20;4.73;;;2.60;;
6356;SDS011;3211;53.452;-2.264;2022-08-21T05:24:02;8.10;;;2.00;;
6356;SDS011;3211;53.452;-2.264;2022-08-21T05:26:46;5.50;;;2.60;;
6356;SDS011;3211;53.452;-2.264;2022-08-21T05:29:28;4.27;;;2.37;;
6356;SDS011;3211;53.452;-2.264;2022-08-21T05:32:12;6.70;;;2.30;;
6356;SDS011;3211;53.452;-2.264;2022-08-21T05:34:55;7.20;;;2.40;;
6356;SDS011;3211;53.452;-2.264;2022-08-21T05:37:36;7.77;;;2.33;;
6356;SDS011;3211;53.452;-2.264;2022-08-21T05:40:19;6.43;;;2.13;;
6356;SDS011;3211;53.452;-2.264;2022-08-21T05:43:02;7.20;;;2.80;;
6356;SDS011;3211;53.452;-2.264;2022-08-21T05:45:44;5.93;;;2.30;;
6356;SDS011;3211;53.452;-2.264;2022-08-21T05:48:26;4.70;;;2.13;;
6356;SDS011;3211;53.452;-2.264;2022-08-21T05:51:09;2.93;;;1.90;;
6356;SDS011;3211;53.452;-2.264;2022-08-21T05:53:53;8.23;;;2.70;;
6356;SDS011;3211;53.452;-2.264;2022-08-21T05:56:35;6.10;;;2.20;;
6356;SDS011;3211;53.452;-2.264;2022-08-21T05:59:18;8.13;;;1.90;;
6356;SDS011;3211;53.452;-2.264;2022-08-21T06:02:01;5.57;;;2.03;;
6356;SDS011;3211;53.452;-2.264;2022-08-21T06:04:43;9.43;;;2.60;;
6356;SDS011;3211;53.452;-2.264;2022-08-21T06:07:25;5.60;;;2.10;;
6356;SDS011;3211;53.452;-2.264;2022-08-21T06:10:07;8.10;;;2.60;;
6356;SDS011;3211;53.452;-2.264;2022-08-21T06:12:52;5.63;;;2.07;;
6356;SDS011;3211;53.452;-2.264;2022-08-21T06:15:36;4.47;;;1.73;;
6356;SDS011;3211;53.452;-2.264;2022-08-21T06:18:18;7.37;;;2.40;;
6356;SDS011;3211;53.452;-2.264;2022-08-21T06:21:00;4.60;;;2.30;;
6356;SDS011;3211;53.452;-2.264;2022-08-21T06:23:42;5.83;;;2.67;;
6356;SDS011;3211;53.452;-2.264;2022-08-21T06:26:24;5.97;;;2.30;;
6356;SDS011;3211;53.452;-2.264;2022-08-21T06:29:08;5.77;;;2.40;;
6356;SDS011;3211;53.452;-2.264;2022-08-21T06:31:52;8.00;;;2.07;;
6356;SDS011;3211;53.452;-2.264;2022-08-21T06:34:35;7.57;;;2.50;;
6356;SDS011;3211;53.452;-2.264;2022-08-21T06:37:18;5.30;;;2.10;;
6356;SDS011;3211;53.452;-2.264;2022-08-21T06:40:00;5.57;;;2.20;;
6356;SDS011;3211;53.452;-2.264;2022-08-21T06:42:42;4.13;;;2.43;;
6356;SDS011;3211;53.452;-2.264;2022-08-21T06:45:24;7.70;;;2.30;;
6356;SDS011;3211;53.452;-2.264;2022-08-21T06:48:08;9.87;;;2.17;;
6356;SDS011;3211;53.452;-2.264;2022-08-21T06:50:50;5.97;;;2.30;;
6356;SDS011;3211;53.452;-2.264;2022-08-21T06:53:32;10.67;;;3.13;;
6356;SDS011;3211;53.452;-2.264;2022-08-21T06:56:15;4.00;;;2.07;;
6356;SDS011;3211;53.452;-2.264;2022-08-21T06:58:57;9.00;;;2.20;;
6356;SDS011;3211;53.452;-2.264;2022-08-21T07:01:38;13.93;;;2.10;;
6356;SDS011;3211;53.452;-2.264;2022-08-21T07:04:22;3.80;;;2.50;;
6356;SDS011;3211;53.452;-2.264;2022-08-21T07:07:04;7.10;;;1.90;;
6356;SDS011;3211;53.452;-2.264;2022-08-21T07:09:46;6.63;;;2.00;;
6356;SDS011;3211;53.452;-2.264;2022-08-21T07:12:28;9.13;;;2.50;;
6356;SDS011;3211;53.452;-2.264;2022-08-21T07:15:11;7.83;;;2.20;;
6356;SDS011;3211;53.452;-2.264;2022-08-21T07:17:53;6.67;;;2.40;;
6356;SDS011;3211;53.452;-2.264;2022-08-21T07:20:36;6.90;;;2.17;;
6356;SDS011;3211;53.452;-2.264;2022-08-21T07:23:19;4.70;;;2.20;;
6356;SDS011;3211;53.452;-2.264;2022-08-21T07:26:05;7.23;;;2.07;;
6356;SDS011;3211;53.452;-2.264;2022-08-21T07:28:47;9.60;;;2.30;;
6356;SDS011;3211;53.452;-2.264;2022-08-21T07:31:30;6.13;;;2.37;;
6356;SDS011;3211;53.452;-2.264;2022-08-21T07:34:12;9.17;;;2.00;;
6356;SDS011;3211;53.452;-2.264;2022-08-21T07:36:56;5.30;;;2.20;;
6356;SDS011;3211;53.452;-2.264;2022-08-21T07:39:38;4.47;;;1.77;;
6356;SDS011;3211;53.452;-2.264;2022-08-21T07:42:20;17.23;;;2.10;;
6356;SDS011;3211;53.452;-2.264;2022-08-21T07:45:02;10.00;;;3.93;;
6356;SDS011;3211;53.452;-2.264;2022-08-21T07:47:45;5.30;;;1.83;;
6356;SDS011;3211;53.452;-2.264;2022-08-21T07:50:27;4.37;;;1.80;;
6356;SDS011;3211;53.452;-2.264;2022-08-21T07:53:10;3.50;;;1.93;;
6356;SDS011;3211;53.452;-2.264;2022-08-21T07:55:52;9.00;;;2.20;;
6356;SDS011;3211;53.452;-2.264;2022-08-21T07:58:38;6.07;;;2.27;;
6356;SDS011;3211;53.452;-2.264;2022-08-21T08:01:20;10.57;;;3.20;;
6356;SDS011;3211;53.452;-2.264;2022-08-21T08:04:02;7.47;;;1.97;;
6356;SDS011;3211;53.452;-2.264;2022-08-21T08:06:44;8.43;;;2.13;;
6356;SDS011;3211;53.452;-2.264;2022-08-21T08:09:28;5.07;;;2.03;;
6356;SDS011;3211;53.452;-2.264;2022-08-21T08:12:10;9.30;;;2.73;;
6356;SDS011;3211;53.452;-2.264;2022-08-21T08:14:52;8.10;;;2.07;;
6356;SDS011;3211;53.452;-2.264;2022-08-21T08:17:34;6.07;;;2.27;;
6356;SDS011;3211;53.452;-2.264;2022-08-21T08:20:18;10.87;;;2.40;;
6356;SDS011;3211;53.452;-2.264;2022-08-21T08:23:01;8.43;;;2.10;;
6356;SDS011;3211;53.452;-2.264;2022-08-21T08:25:44;6.93;;;1.90;;
6356;SDS011;3211;53.452;-2.264;2022-08-21T08:28:26;4.63;;;1.80;;
6356;SDS011;3211;53.452;-2.264;2022-08-21T08:31:08;6.67;;;2.00;;
6356;SDS011;3211;53.452;-2.264;2022-08-21T08:33:50;5.73;;;1.83;;
6356;SDS011;3211;53.452;-2.264;2022-08-21T08:36:33;5.73;;;1.80;;
6356;SDS011;3211;53.452;-2.264;2022-08-21T08:39:17;5.73;;;1.90;;
6356;SDS011;3211;53.452;-2.264;2022-08-21T08:42:01;5.57;;;2.23;;
6356;SDS011;3211;53.452;-2.264;2022-08-21T08:44:50;12.37;;;2.70;;
6356;SDS011;3211;53.452;-2.264;2022-08-21T08:47:40;6.17;;;2.13;;
6356;SDS011;3211;53.452;-2.264;2022-08-21T08:50:27;6.90;;;1.77;;
6356;SDS011;3211;53.452;-2.264;2022-08-21T08:53:19;7.67;;;1.80;;
6356;SDS011;3211;53.452;-2.264;2022-08-21T08:56:04;6.20;;;1.73;;
6356;SDS011;3211;53.452;-2.264;2022-08-21T08:58:48;1.87;;;1.33;;
6356;SDS011;3211;53.452;-2.264;2022-08-21T09:01:33;4.30;;;1.63;;
6356;SDS011;3211;53.452;-2.264;2022-08-21T09:04:17;4.90;;;1.70;;
6356;SDS011;3211;53.452;-2.264;2022-08-21T09:07:08;4.17;;;1.60;;
6356;SDS011;3211;53.452;-2.264;2022-08-21T09:10:02;4.57;;;2.17;;
6356;SDS011;3211;53.452;-2.264;2022-08-21T09:12:52;4.60;;;1.53;;
6356;SDS011;3211;53.452;-2.264;2022-08-21T09:15:46;3.87;;;1.43;;
6356;SDS011;3211;53.452;-2.264;2022-08-21T09:18:38;4.57;;;2.00;;
6356;SDS011;3211;53.452;-2.264;2022-08-21T09:21:28;5.20;;;1.90;;
6356;SDS011;3211;53.452;-2.264;2022-08-21T09:24:32;6.80;;;2.33;;
6356;SDS011;3211;53.452;-2.264;2022-08-21T09:27:21;4.37;;;1.70;;
6356;SDS011;3211;53.452;-2.264;2022-08-21T09:30:05;3.80;;;1.77;;
6356;SDS011;3211;53.452;-2.264;2022-08-21T09:32:50;4.30;;;1.70;;
6356;SDS011;3211;53.452;-2.264;2022-08-21T09:35:32;6.70;;;1.60;;
6356;SDS011;3211;53.452;-2.264;2022-08-21T09:38:23;5.10;;;1.93;;
6356;SDS011;3211;53.452;-2.264;2022-08-21T09:41:08;4.67;;;1.80;;
6356;SDS011;3211;53.452;-2.264;2022-08-21T09:43:52;3.30;;;1.70;;
6356;SDS011;3211;53.452;-2.264;2022-08-21T09:46:36;3.97;;;2.13;;
6356;SDS011;3211;53.452;-2.264;2022-08-21T09:49:27;3.63;;;1.63;;
6356;SDS011;3211;53.452;-2.264;2022-08-21T09:52:15;6.03;;;1.80;;
6356;SDS011;3211;53.452;-2.264;2022-08-21T09:55:01;4.30;;;1.83;;
6356;SDS011;3211;53.452;-2.264;2022-08-21T09:58:04;4.70;;;2.00;;
6356;SDS011;3211;53.452;-2.264;2022-08-21T10:00:56;4.97;;;1.90;;
6356;SDS011;3211;53.452;-2.264;2022-08-21T10:03:39;4.33;;;2.63;;
6356;SDS011;3211;53.452;-2.264;2022-08-21T10:06:25;6.40;;;1.80;;
6356;SDS011;3211;53.452;-2.264;2022-08-21T10:09:10;5.87;;;2.27;;
6356;SDS011;3211;53.452;-2.264;2022-08-21T10:11:56;5.07;;;1.77;;
6356;SDS011;3211;53.452;-2.264;2022-08-21T10:14:52;6.37;;;1.57;;
6356;SDS011;3211;53.452;-2.264;2022-08-21T10:17:44;3.20;;;1.60;;
6356;SDS011;3211;53.452;-2.264;2022-08-21T10:20:35;7.63;;;2.00;;
6356;SDS011;3211;53.452;-2.264;2022-08-21T10:23:29;6.80;;;1.77;;
6356;SDS011;3211;53.452;-2.264;2022-08-21T10:26:25;4.60;;;1.80;;
6356;SDS011;3211;53.452;-2.264;2022-08-21T10:29:19;4.13;;;1.80;;
6356;SDS011;3211;53.452;-2.264;2022-08-21T10:32:21;4.80;;;1.80;;
6356;SDS011;3211;53.452;-2.264;2022-08-21T10:35:12;5.30;;;1.90;;
6356;SDS011;3211;53.452;-2.264;2022-08-21T10:38:05;4.67;;;1.93;;
6356;SDS011;3211;53.452;-2.264;2022-08-21T10:41:05;5.20;;;1.77;;
6356;SDS011;3211;53.452;-2.264;2022-08-21T10:43:56;4.67;;;1.77;;
6356;SDS011;3211;53.452;-2.264;2022-08-21T10:46:44;5.87;;;2.20;;
6356;SDS011;3211;53.452;-2.264;2022-08-21T10:49:36;4.47;;;1.90;;
6356;SDS011;3211;53.452;-2.264;2022-08-21T10:52:28;3.77;;;1.80;;
6356;SDS011;3211;53.452;-2.264;2022-08-21T10:55:18;4.77;;;1.63;;
6356;SDS011;3211;53.452;-2.264;2022-08-21T10:58:06;7.20;;;1.97;;
6356;SDS011;3211;53.452;-2.264;2022-08-21T11:00:51;5.00;;;1.50;;
6356;SDS011;3211;53.452;-2.264;2022-08-21T11:03:39;5.07;;;1.80;;
6356;SDS011;3211;53.452;-2.264;2022-08-21T11:06:24;3.37;;;1.83;;
6356;SDS011;3211;53.452;-2.264;2022-08-21T11:09:10;2.83;;;1.83;;
6356;SDS011;3211;53.452;-2.264;2022-08-21T11:11:54;3.00;;;1.60;;
6356;SDS011;3211;53.452;-2.264;2022-08-21T11:14:46;7.17;;;2.03;;
6356;SDS011;3211;53.452;-2.264;2022-08-21T11:17:34;3.80;;;1.80;;
6356;SDS011;3211;53.452;-2.264;2022-08-21T11:20:21;2.63;;;1.63;;
6356;SDS011;3211;53.452;-2.264;2022-08-21T11:23:11;4.33;;;1.60;;
6356;SDS011;3211;53.452;-2.264;2022-08-21T11:26:00;1.70;;;1.50;;
6356;SDS011;3211;53.452;-2.264;2022-08-21T11:28:46;3.80;;;1.93;;
6356;SDS011;3211;53.452;-2.264;2022-08-21T11:31:43;4.13;;;2.30;;
6356;SDS011;3211;53.452;-2.264;2022-08-21T11:34:45;5.17;;;2.13;;
6356;SDS011;3211;53.452;-2.264;2022-08-21T11:37:42;5.90;;;3.67;;
6356;SDS011;3211;53.452;-2.264;2022-08-21T11:43:34;4.23;;;1.70;;
6356;SDS011;3211;53.452;-2.264;2022-08-21T11:46:23;4.83;;;1.70;;
6356;SDS011;3211;53.452;-2.264;2022-08-21T11:49:28;3.77;;;1.70;;
6356;SDS011;3211;53.452;-2.264;2022-08-21T11:52:21;3.10;;;1.57;;
6356;SDS011;3211;53.452;-2.264;2022-08-21T11:55:07;4.00;;;1.70;;
6356;SDS011;3211;53.452;-2.264;2022-08-21T11:57:55;2.80;;;2.00;;
6356;SDS011;3211;53.452;-2.264;2022-08-21T12:00:42;4.53;;;2.13;;
6356;SDS011;3211;53.452;-2.264;2022-08-21T12:03:27;2.90;;;1.60;;
6356;SDS011;3211;53.452;-2.264;2022-08-21T12:06:13;3.10;;;2.03;;
6356;SDS011;3211;53.452;-2.264;2022-08-21T12:08:59;3.30;;;1.60;;
6356;SDS011;3211;53.452;-2.264;2022-08-21T12:11:46;3.90;;;1.90;;
6356;SDS011;3211;53.452;-2.264;2022-08-21T12:14:37;3.60;;;1.60;;
6356;SDS011;3211;53.452;-2.264;2022-08-21T12:17:21;3.50;;;1.70;;
6356;SDS011;3211;53.452;-2.264;2022-08-21T12:20:15;3.17;;;1.60;;
6356;SDS011;3211;53.452;-2.264;2022-08-21T12:23:03;2.30;;;1.50;;
6356;SDS011;3211;53.452;-2.264;2022-08-21T12:25:59;2.47;;;1.60;;
6356;SDS011;3211;53.452;-2.264;2022-08-21T12:29:03;2.63;;;1.87;;
6356;SDS011;3211;53.452;-2.264;2022-08-21T12:31:57;4.73;;;1.67;;
6356;SDS011;3211;53.452;-2.264;2022-08-21T12:34:42;4.53;;;1.60;;
6356;SDS011;3211;53.452;-2.264;2022-08-21T12:37:33;2.73;;;1.50;;
6356;SDS011;3211;53.452;-2.264;2022-08-21T12:40:22;3.90;;;1.90;;
6356;SDS011;3211;53.452;-2.264;2022-08-21T12:43:11;4.30;;;1.60;;
6356;SDS011;3211;53.452;-2.264;2022-08-21T12:45:57;5.83;;;1.90;;
6356;SDS011;3211;53.452;-2.264;2022-08-21T12:48:41;5.43;;;2.17;;
6356;SDS011;3211;53.452;-2.264;2022-08-21T12:51:28;2.13;;;1.40;;
6356;SDS011;3211;53.452;-2.264;2022-08-21T12:54:21;1.93;;;1.63;;
6356;SDS011;3211;53.452;-2.264;2022-08-21T12:57:08;2.63;;;1.60;;
6356;SDS011;3211;53.452;-2.264;2022-08-21T12:59:59;3.90;;;1.70;;
6356;SDS011;3211;53.452;-2.264;2022-08-21T13:02:45;3.43;;;2.07;;
6356;SDS011;3211;53.452;-2.264;2022-08-21T13:05:31;5.10;;;1.80;;
6356;SDS011;3211;53.452;-2.264;2022-08-21T13:08:14;4.00;;;1.67;;
6356;SDS011;3211;53.452;-2.264;2022-08-21T13:11:01;3.27;;;1.70;;
6356;SDS011;3211;53.452;-2.264;2022-08-21T13:13:49;4.13;;;1.63;;
6356;SDS011;3211;53.452;-2.264;2022-08-21T13:16:32;3.40;;;1.60;;
6356;SDS011;3211;53.452;-2.264;2022-08-21T13:19:16;2.27;;;1.57;;
6356;SDS011;3211;53.452;-2.264;2022-08-21T13:21:59;6.60;;;2.67;;
6356;SDS011;3211;53.452;-2.264;2022-08-21T13:24:42;4.53;;;1.77;;
6356;SDS011;3211;53.452;-2.264;2022-08-21T13:27:29;4.27;;;1.90;;
6356;SDS011;3211;53.452;-2.264;2022-08-21T13:30:14;4.87;;;2.00;;
6356;SDS011;3211;53.452;-2.264;2022-08-21T13:33:03;2.50;;;1.60;;
6356;SDS011;3211;53.452;-2.264;2022-08-21T13:35:48;6.60;;;1.83;;
6356;SDS011;3211;53.452;-2.264;2022-08-21T13:38:33;2.80;;;1.40;;
6356;SDS011;3211;53.452;-2.264;2022-08-21T13:41:19;2.57;;;1.30;;
6356;SDS011;3211;53.452;-2.264;2022-08-21T13:44:04;3.23;;;1.77;;
6356;SDS011;3211;53.452;-2.264;2022-08-21T13:46:55;3.27;;;2.03;;
6356;SDS011;3211;53.452;-2.264;2022-08-21T13:49:39;3.77;;;1.83;;
6356;SDS011;3211;53.452;-2.264;2022-08-21T13:52:25;4.47;;;1.83;;
6356;SDS011;3211;53.452;-2.264;2022-08-21T13:55:08;6.60;;;1.93;;
6356;SDS011;3211;53.452;-2.264;2022-08-21T13:58:00;3.60;;;1.73;;
6356;SDS011;3211;53.452;-2.264;2022-08-21T14:00:44;3.10;;;2.13;;
6356;SDS011;3211;53.452;-2.264;2022-08-21T14:03:33;1.77;;;1.30;;
6356;SDS011;3211;53.452;-2.264;2022-08-21T14:06:18;3.80;;;1.90;;
6356;SDS011;3211;53.452;-2.264;2022-08-21T14:09:07;3.63;;;1.60;;
6356;SDS011;3211;53.452;-2.264;2022-08-21T14:11:50;2.17;;;1.40;;
6356;SDS011;3211;53.452;-2.264;2022-08-21T14:14:34;5.33;;;2.07;;
6356;SDS011;3211;53.452;-2.264;2022-08-21T14:17:25;3.67;;;1.63;;
6356;SDS011;3211;53.452;-2.264;2022-08-21T14:20:11;2.20;;;1.63;;
6356;SDS011;3211;53.452;-2.264;2022-08-21T14:23:06;3.03;;;1.60;;
6356;SDS011;3211;53.452;-2.264;2022-08-21T14:25:47;3.50;;;1.80;;
6356;SDS011;3211;53.452;-2.264;2022-08-21T14:28:30;4.03;;;1.60;;
6356;SDS011;3211;53.452;-2.264;2022-08-21T14:31:15;4.43;;;1.50;;
6356;SDS011;3211;53.452;-2.264;2022-08-21T14:33:58;7.50;;;1.60;;
6356;SDS011;3211;53.452;-2.264;2022-08-21T14:36:43;2.73;;;1.53;;
6356;SDS011;3211;53.452;-2.264;2022-08-21T14:39:25;4.10;;;1.70;;
6356;SDS011;3211;53.452;-2.264;2022-08-21T14:42:07;3.57;;;1.50;;
6356;SDS011;3211;53.452;-2.264;2022-08-21T14:44:49;2.97;;;1.53;;
6356;SDS011;3211;53.452;-2.264;2022-08-21T14:47:35;4.13;;;2.00;;
6356;SDS011;3211;53.452;-2.264;2022-08-21T14:50:18;4.80;;;1.70;;
6356;SDS011;3211;53.452;-2.264;2022-08-21T14:53:01;4.67;;;2.20;;
6356;SDS011;3211;53.452;-2.264;2022-08-21T14:55:44;4.73;;;1.70;;
6356;SDS011;3211;53.452;-2.264;2022-08-21T14:58:43;6.37;;;1.80;;
6356;SDS011;3211;53.452;-2.264;2022-08-21T15:01:31;2.67;;;1.63;;
6356;SDS011;3211;53.452;-2.264;2022-08-21T15:04:16;1.83;;;1.50;;
6356;SDS011;3211;53.452;-2.264;2022-08-21T15:06:58;4.23;;;1.60;;
6356;SDS011;3211;53.452;-2.264;2022-08-21T15:09:41;4.70;;;1.77;;
6356;SDS011;3211;53.452;-2.264;2022-08-21T15:12:23;7.97;;;1.90;;
6356;SDS011;3211;53.452;-2.264;2022-08-21T15:15:07;5.83;;;1.90;;
6356;SDS011;3211;53.452;-2.264;2022-08-21T15:17:49;4.27;;;1.63;;
6356;SDS011;3211;53.452;-2.264;2022-08-21T15:20:31;4.77;;;2.07;;
6356;SDS011;3211;53.452;-2.264;2022-08-21T15:23:13;6.47;;;2.77;;
6356;SDS011;3211;53.452;-2.264;2022-08-21T15:25:57;3.27;;;1.30;;
6356;SDS011;3211;53.452;-2.264;2022-08-21T15:28:39;5.70;;;1.90;;
6356;SDS011;3211;53.452;-2.264;2022-08-21T15:31:21;3.90;;;1.57;;
6356;SDS011;3211;53.452;-2.264;2022-08-21T15:34:04;2.80;;;1.60;;
6356;SDS011;3211;53.452;-2.264;2022-08-21T15:36:46;2.97;;;1.57;;
6356;SDS011;3211;53.452;-2.264;2022-08-21T15:39:28;2.17;;;1.30;;
6356;SDS011;3211;53.452;-2.264;2022-08-21T15:42:11;2.73;;;1.50;;
6356;SDS011;3211;53.452;-2.264;2022-08-21T15:44:54;4.13;;;1.87;;
6356;SDS011;3211;53.452;-2.264;2022-08-21T15:47:38;4.57;;;2.30;;
6356;SDS011;3211;53.452;-2.264;2022-08-21T15:50:25;5.33;;;1.70;;
6356;SDS011;3211;53.452;-2.264;2022-08-21T15:53:06;4.90;;;1.63;;
6356;SDS011;3211;53.452;-2.264;2022-08-21T15:55:48;3.77;;;1.93;;
6356;SDS011;3211;53.452;-2.264;2022-08-21T15:58:32;3.47;;;1.50;;
6356;SDS011;3211;53.452;-2.264;2022-08-21T16:01:14;3.30;;;2.07;;
6356;SDS011;3211;53.452;-2.264;2022-08-21T16:03:56;4.70;;;1.90;;
6356;SDS011;3211;53.452;-2.264;2022-08-21T16:06:38;2.13;;;1.33;;
6356;SDS011;3211;53.452;-2.264;2022-08-21T16:09:20;4.17;;;1.73;;
6356;SDS011;3211;53.452;-2.264;2022-08-21T16:12:03;2.60;;;1.40;;
6356;SDS011;3211;53.452;-2.264;2022-08-21T16:14:47;3.17;;;1.70;;
6356;SDS011;3211;53.452;-2.264;2022-08-21T16:17:31;4.33;;;1.70;;
6356;SDS011;3211;53.452;-2.264;2022-08-21T16:20:15;2.77;;;1.53;;
6356;SDS011;3211;53.452;-2.264;2022-08-21T16:23:00;4.23;;;1.63;;
6356;SDS011;3211;53.452;-2.264;2022-08-21T16:25:42;4.00;;;2.30;;
6356;SDS011;3211;53.452;-2.264;2022-08-21T16:28:25;3.20;;;1.60;;
6356;SDS011;3211;53.452;-2.264;2022-08-21T16:31:09;4.20;;;1.70;;
6356;SDS011;3211;53.452;-2.264;2022-08-21T16:33:55;3.50;;;1.70;;
6356;SDS011;3211;53.452;-2.264;2022-08-21T16:36:37;3.30;;;1.53;;
6356;SDS011;3211;53.452;-2.264;2022-08-21T16:39:20;3.10;;;1.57;;
6356;SDS011;3211;53.452;-2.264;2022-08-21T16:42:02;5.63;;;1.97;;
6356;SDS011;3211;53.452;-2.264;2022-08-21T16:44:44;5.43;;;1.97;;
6356;SDS011;3211;53.452;-2.264;2022-08-21T16:47:28;3.60;;;1.70;;
6356;SDS011;3211;53.452;-2.264;2022-08-21T16:50:14;3.90;;;1.60;;